Springfield, Wisconsin
Current Conditions -  °F | °C
As of 9:35 AM on Saturday 25 Oct 2014 (Local Time) from KBUU Reporting Station
Clear Clear  
Wind Chill: 58°   Ceiling: Unl
Heat Index: 58°   Visibility: 10mi
Dew Point: 48°   Wind: 12mph
Humidity: 68%   Direction: 310°NW
Pressure: 29.94"   Gusts: NA
Location:  42.64°N, 88.41°W
Report Text: KBUU 251435Z AUTO 31010KT 10SM CLR 15/09 A2994 RMK AO2 T01470088
Loading
Personal Weather Stations






























Interactive Weather Map
Tropical Storm Tracking
New forecast layout! Learn more

10-Day Weather Forecast

Advertisements
Track Severe Weather on mobile